Time;durP1;ratioP1;P1;durP2;ratioP2;P2;SDS_P1;SDS_P2;PMS_P1;PMS_P2;Temp;Humidity;BMP_temperature;BMP_pressure;BME280_temperature;BME280_humidity;BME280_pressure;Samples;Min_cycle;Max_cycle;Signal;HPM_P1;HPM_P2
2024/01/16 00:02:16;;;;;;;0.52;0.52;;;;;;;;;;4954821;28;20039;-82
2024/01/16 00:04:42;;;;;;;0.50;0.50;;;;;;;;;;4957459;28;20093;-82
2024/01/16 00:07:08;;;;;;;0.57;0.57;;;;;;;;;;4954859;28;20493;-82
2024/01/16 00:09:34;;;;;;;0.50;0.50;;;;;;;;;;4953384;28;20401;-82
2024/01/16 00:12:00;;;;;;;0.50;0.50;;;;;;;;;;4970519;28;20054;-82
2024/01/16 00:14:27;;;;;;;0.50;0.50;;;;;;;;;;4954901;28;20097;-82
2024/01/16 00:16:53;;;;;;;0.60;0.60;;;;;;;;;;4953165;28;20164;-82
2024/01/16 00:19:19;;;;;;;0.50;0.50;;;;;;;;;;4954822;28;20531;-81
2024/01/16 00:21:46;;;;;;;0.50;0.50;;;;;;;;;;4954162;28;20113;-82
2024/01/16 00:24:12;;;;;;;0.50;0.50;;;;;;;;;;4954814;28;20042;-82
2024/01/16 00:26:38;;;;;;;0.50;0.50;;;;;;;;;;4953337;28;20414;-82
2024/01/16 00:29:04;;;;;;;0.52;0.52;;;;;;;;;;4954694;28;20038;-82
2024/01/16 00:31:30;;;;;;;0.50;0.50;;;;;;;;;;4956898;28;20045;-82
2024/01/16 00:33:56;;;;;;;0.60;0.60;;;;;;;;;;4966872;28;20054;-82
2024/01/16 00:36:22;;;;;;;0.57;0.57;;;;;;;;;;4968129;28;20061;-82
2024/01/16 00:38:48;;;;;;;0.50;0.50;;;;;;;;;;4980680;28;20039;-88
2024/01/16 00:41:17;;;;;;;0.60;0.60;;;;;;;;;;4959595;28;20039;-88
2024/01/16 00:43:46;;;;;;;0.40;0.40;;;;;;;;;;4954293;28;20042;-88
2024/01/16 00:46:12;;;;;;;0.50;0.50;;;;;;;;;;4971349;28;20185;-87
2024/01/16 00:48:38;;;;;;;0.40;0.40;;;;;;;;;;4955060;28;20418;-88
2024/01/16 00:51:04;;;;;;;0.50;0.50;;;;;;;;;;4954947;28;20121;-87
2024/01/16 00:53:30;;;;;;;0.50;0.50;;;;;;;;;;4954863;28;20057;-87
2024/01/16 00:55:56;;;;;;;0.60;0.60;;;;;;;;;;4955415;28;20038;-87
2024/01/16 00:58:22;;;;;;;0.40;0.40;;;;;;;;;;4953883;28;20039;-87
2024/01/16 01:00:48;;;;;;;0.50;0.50;;;;;;;;;;4955029;28;20425;-88
2024/01/16 01:03:14;;;;;;;0.50;0.50;;;;;;;;;;4954982;28;20049;-87
2024/01/16 01:05:40;;;;;;;0.50;0.50;;;;;;;;;;4955156;28;20155;-87
2024/01/16 01:08:07;;;;;;;0.50;0.50;;;;;;;;;;4959059;28;20051;-89
2024/01/16 01:10:33;;;;;;;0.50;0.50;;;;;;;;;;4958566;28;20035;-88
2024/01/16 01:12:59;;;;;;;0.50;0.50;;;;;;;;;;4974779;28;20039;-87
2024/01/16 01:15:25;;;;;;;0.50;0.50;;;;;;;;;;4959113;28;20031;-87
2024/01/16 01:17:51;;;;;;;0.60;0.60;;;;;;;;;;4959245;28;20070;-87
2024/01/16 01:20:18;;;;;;;0.50;0.50;;;;;;;;;;4958760;28;20457;-88
2024/01/16 01:22:45;;;;;;;0.50;0.50;;;;;;;;;;4975238;28;20104;-88
2024/01/16 01:25:11;;;;;;;0.50;0.50;;;;;;;;;;4959013;28;20042;-88
2024/01/16 01:27:37;;;;;;;0.57;0.57;;;;;;;;;;4959140;28;20065;-88
2024/01/16 01:30:04;;;;;;;0.50;0.50;;;;;;;;;;4958634;28;20085;-88
2024/01/16 01:32:31;;;;;;;0.50;0.50;;;;;;;;;;4958965;28;20039;-88
2024/01/16 01:34:57;;;;;;;0.50;0.50;;;;;;;;;;4975498;28;20142;-88
2024/01/16 01:37:22;;;;;;;0.60;0.60;;;;;;;;;;4959220;28;20129;-88
2024/01/16 01:39:48;;;;;;;0.50;0.50;;;;;;;;;;4958493;28;20034;-88
2024/01/16 01:42:15;;;;;;;0.50;0.50;;;;;;;;;;4958821;28;20043;-88
2024/01/16 01:44:42;;;;;;;0.50;0.50;;;;;;;;;;4977669;28;20090;-88
2024/01/16 01:47:08;;;;;;;0.50;0.50;;;;;;;;;;4958757;28;20492;-88
2024/01/16 01:49:34;;;;;;;0.52;0.52;;;;;;;;;;4958222;28;20386;-87
2024/01/16 01:52:00;;;;;;;0.50;0.50;;;;;;;;;;4958372;28;20402;-88
2024/01/16 01:54:27;;;;;;;0.40;0.40;;;;;;;;;;4958677;28;20043;-87
2024/01/16 01:56:53;;;;;;;0.50;0.50;;;;;;;;;;4958568;28;20101;-88
2024/01/16 01:59:20;;;;;;;0.50;0.50;;;;;;;;;;4958480;28;20130;-88
2024/01/16 02:01:47;;;;;;;0.50;0.50;;;;;;;;;;4939134;29;20047;-88
2024/01/16 02:04:15;;;;;;;0.57;0.57;;;;;;;;;;4938959;29;20047;-88
2024/01/16 02:06:42;;;;;;;0.50;0.50;;;;;;;;;;4939288;29;20250;-88
2024/01/16 02:09:08;;;;;;;0.50;0.50;;;;;;;;;;4939101;29;20046;-87
2024/01/16 02:11:34;;;;;;;0.50;0.50;;;;;;;;;;4939283;29;20035;-88
2024/01/16 02:14:00;;;;;;;0.50;0.50;;;;;;;;;;4971078;28;20055;-88
2024/01/16 02:16:26;;;;;;;0.57;0.57;;;;;;;;;;4954511;28;20043;-88
2024/01/16 02:18:52;;;;;;;0.50;0.50;;;;;;;;;;4971191;28;20058;-88
2024/01/16 02:21:21;;;;;;;0.50;0.50;;;;;;;;;;4958238;28;20089;-87
2024/01/16 02:23:47;;;;;;;0.50;0.50;;;;;;;;;;4973819;28;20057;-87
2024/01/16 02:26:16;;;;;;;0.50;0.50;;;;;;;;;;4957869;28;20098;-88
2024/01/16 02:28:42;;;;;;;0.50;0.50;;;;;;;;;;4958046;28;20572;-88
2024/01/16 02:31:08;;;;;;;0.50;0.50;;;;;;;;;;4957492;28;20130;-88
2024/01/16 02:33:34;;;;;;;0.50;0.50;;;;;;;;;;4957966;28;20480;-88
2024/01/16 02:36:00;;;;;;;0.50;0.50;;;;;;;;;;4957945;28;20045;-89
2024/01/16 02:38:26;;;;;;;0.50;0.50;;;;;;;;;;4957540;28;20039;-88
2024/01/16 02:40:52;;;;;;;0.60;0.60;;;;;;;;;;4973718;28;20082;-87
2024/01/16 02:43:18;;;;;;;0.50;0.50;;;;;;;;;;4957523;28;20030;-88
2024/01/16 02:45:44;;;;;;;0.50;0.50;;;;;;;;;;4957719;28;20070;-88
2024/01/16 02:48:11;;;;;;;0.60;0.60;;;;;;;;;;4957447;28;20049;-88
2024/01/16 02:50:38;;;;;;;0.50;0.50;;;;;;;;;;4973596;28;20046;-88
2024/01/16 02:53:04;;;;;;;0.50;0.50;;;;;;;;;;4957174;28;20042;-88
2024/01/16 02:55:30;;;;;;;0.50;0.50;;;;;;;;;;4957630;28;20561;-88
2024/01/16 02:57:56;;;;;;;0.50;0.50;;;;;;;;;;4957173;28;20084;-87
2024/01/16 03:00:22;;;;;;;0.50;0.50;;;;;;;;;;4973281;28;20086;-88
2024/01/16 03:02:48;;;;;;;0.50;0.50;;;;;;;;;;4957053;28;20591;-88
2024/01/16 03:05:14;;;;;;;0.50;0.50;;;;;;;;;;4973397;28;20047;-88
2024/01/16 03:07:41;;;;;;;0.47;0.47;;;;;;;;;;4957212;28;20497;-88
2024/01/16 03:10:07;;;;;;;0.50;0.50;;;;;;;;;;4957396;28;20813;-88
2024/01/16 03:12:33;;;;;;;0.50;0.50;;;;;;;;;;4956898;28;20588;-88
2024/01/16 03:14:59;;;;;;;0.50;0.50;;;;;;;;;;4973092;28;20632;-88
2024/01/16 03:17:25;;;;;;;0.50;0.50;;;;;;;;;;4957093;28;20074;-88
2024/01/16 03:19:51;;;;;;;0.50;0.50;;;;;;;;;;4956871;28;20082;-88
2024/01/16 03:22:18;;;;;;;0.50;0.50;;;;;;;;;;4957048;28;20047;-88
2024/01/16 03:24:44;;;;;;;0.60;0.60;;;;;;;;;;4957131;28;20050;-88
2024/01/16 03:27:10;;;;;;;0.50;0.50;;;;;;;;;;4972939;28;20042;-88
2024/01/16 03:29:36;;;;;;;0.50;0.50;;;;;;;;;;4956923;28;20050;-88
2024/01/16 03:32:02;;;;;;;0.50;0.50;;;;;;;;;;4972794;28;20505;-88
2024/01/16 03:34:28;;;;;;;0.50;0.50;;;;;;;;;;4957154;28;20038;-88
2024/01/16 03:36:54;;;;;;;0.50;0.50;;;;;;;;;;4956710;28;20068;-88
2024/01/16 03:39:20;;;;;;;0.50;0.50;;;;;;;;;;4956633;28;20045;-88
2024/01/16 03:41:46;;;;;;;0.50;0.50;;;;;;;;;;4956637;28;20053;-88
2024/01/16 03:44:12;;;;;;;0.50;0.50;;;;;;;;;;4961101;28;20108;-88
2024/01/16 03:46:38;;;;;;;0.47;0.47;;;;;;;;;;4956388;28;20038;-88
2024/01/16 03:49:04;;;;;;;0.50;0.50;;;;;;;;;;4956190;28;20068;-88
2024/01/16 03:51:30;;;;;;;0.50;0.50;;;;;;;;;;4956495;28;20654;-88
2024/01/16 03:53:56;;;;;;;0.50;0.50;;;;;;;;;;4956059;28;20045;-88
2024/01/16 03:56:23;;;;;;;0.50;0.50;;;;;;;;;;4956179;28;20046;-88
2024/01/16 03:58:49;;;;;;;0.50;0.50;;;;;;;;;;4956461;28;20049;-88
2024/01/16 04:01:15;;;;;;;0.50;0.50;;;;;;;;;;4956251;28;20656;-88
2024/01/16 04:03:41;;;;;;;0.40;0.40;;;;;;;;;;4956333;28;20412;-88
2024/01/16 04:06:15;;;;;;;0.40;0.40;;;;;;;;;;4972384;28;20437;-88
2024/01/16 04:08:41;;;;;;;0.50;0.50;;;;;;;;;;4972401;28;20126;-88
2024/01/16 04:11:12;;;;;;;0.50;0.50;;;;;;;;;;4955811;28;20464;-88
2024/01/16 04:13:38;;;;;;;0.50;0.50;;;;;;;;;;4971944;28;20038;-88
2024/01/16 04:16:04;;;;;;;0.50;0.50;;;;;;;;;;4972312;28;20061;-87
2024/01/16 04:18:30;;;;;;;0.50;0.50;;;;;;;;;;4956298;28;20042;-88
2024/01/16 04:20:56;;;;;;;0.52;0.52;;;;;;;;;;4956208;28;20378;-87
2024/01/16 04:23:22;;;;;;;0.50;0.50;;;;;;;;;;4956043;28;20138;-88
2024/01/16 04:25:48;;;;;;;0.50;0.50;;;;;;;;;;4972212;28;20065;-88
2024/01/16 04:28:14;;;;;;;0.50;0.50;;;;;;;;;;4971892;28;20043;-88
2024/01/16 04:30:39;;;;;;;0.60;0.60;;;;;;;;;;4972063;28;20043;-88
2024/01/16 04:33:05;;;;;;;0.50;0.50;;;;;;;;;;4952991;28;20035;-88
2024/01/16 04:35:31;;;;;;;0.50;0.50;;;;;;;;;;4955924;28;20425;-88
2024/01/16 04:37:57;;;;;;;0.50;0.50;;;;;;;;;;4955631;28;20043;-88
2024/01/16 04:40:23;;;;;;;0.50;0.50;;;;;;;;;;4957062;28;20061;-88
2024/01/16 04:42:49;;;;;;;0.60;0.60;;;;;;;;;;4969777;28;20121;-88
2024/01/16 04:45:15;;;;;;;0.50;0.50;;;;;;;;;;4972906;28;20437;-88
2024/01/16 04:47:42;;;;;;;0.50;0.50;;;;;;;;;;4968060;28;20089;-87
2024/01/16 04:50:08;;;;;;;0.50;0.50;;;;;;;;;;4959675;28;20046;-88
2024/01/16 04:52:34;;;;;;;0.50;0.50;;;;;;;;;;4962793;28;20118;-88
2024/01/16 04:55:00;;;;;;;0.47;0.47;;;;;;;;;;4966191;28;20126;-88
2024/01/16 04:57:26;;;;;;;0.50;0.50;;;;;;;;;;4977886;28;20049;-88
2024/01/16 04:59:52;;;;;;;0.40;0.40;;;;;;;;;;4968302;28;20050;-87
2024/01/16 05:02:18;;;;;;;0.50;0.50;;;;;;;;;;4979236;28;20039;-88
2024/01/16 05:04:45;;;;;;;0.50;0.50;;;;;;;;;;4969352;28;20070;-88
2024/01/16 05:07:11;;;;;;;0.50;0.50;;;;;;;;;;4952363;28;20104;-88
2024/01/16 05:09:37;;;;;;;0.45;0.45;;;;;;;;;;4961226;28;20191;-88
2024/01/16 05:12:03;;;;;;;0.50;0.50;;;;;;;;;;4968637;28;20046;-88
2024/01/16 05:14:29;;;;;;;0.50;0.50;;;;;;;;;;4955542;28;20043;-88
2024/01/16 05:16:55;;;;;;;0.50;0.50;;;;;;;;;;4961899;28;20049;-88
2024/01/16 05:19:21;;;;;;;0.40;0.40;;;;;;;;;;4965078;28;20489;-88
2024/01/16 05:21:47;;;;;;;0.50;0.50;;;;;;;;;;4965381;28;20035;-88
2024/01/16 05:24:13;;;;;;;0.50;0.50;;;;;;;;;;4956899;28;20078;-88
2024/01/16 05:26:39;;;;;;;0.50;0.50;;;;;;;;;;4967322;28;20489;-88
2024/01/16 05:29:05;;;;;;;0.50;0.50;;;;;;;;;;4966319;28;20520;-88
2024/01/16 05:31:31;;;;;;;0.50;0.50;;;;;;;;;;4950340;28;20035;-88
2024/01/16 05:33:57;;;;;;;0.50;0.50;;;;;;;;;;4949356;28;20047;-87
2024/01/16 05:36:24;;;;;;;0.50;0.50;;;;;;;;;;4951483;28;20704;-88
2024/01/16 05:38:53;;;;;;;0.50;0.50;;;;;;;;;;4943919;28;20112;-88
2024/01/16 05:41:19;;;;;;;0.52;0.52;;;;;;;;;;4957239;28;20069;-88
2024/01/16 05:43:45;;;;;;;0.50;0.50;;;;;;;;;;4975014;28;20497;-87
2024/01/16 05:46:11;;;;;;;0.50;0.50;;;;;;;;;;4972572;28;20447;-88
2024/01/16 05:48:37;;;;;;;0.50;0.50;;;;;;;;;;4959975;28;20031;-87
2024/01/16 05:51:03;;;;;;;0.50;0.50;;;;;;;;;;4960763;28;20041;-87
2024/01/16 05:53:28;;;;;;;0.60;0.60;;;;;;;;;;4958257;28;20044;-88
2024/01/16 05:55:54;;;;;;;0.60;0.60;;;;;;;;;;4957043;28;20043;-88
2024/01/16 05:58:20;;;;;;;0.50;0.50;;;;;;;;;;4960491;28;20034;-87
2024/01/16 06:00:47;;;;;;;0.60;0.60;;;;;;;;;;4960087;28;20053;-88
2024/01/16 06:03:13;;;;;;;0.60;0.60;;;;;;;;;;4971373;28;20047;-88
2024/01/16 06:05:39;;;;;;;0.50;0.50;;;;;;;;;;4957963;28;20519;-86
2024/01/16 06:08:05;;;;;;;0.50;0.50;;;;;;;;;;4946939;28;20542;-88
2024/01/16 06:10:31;;;;;;;0.60;0.60;;;;;;;;;;4950672;28;20036;-87
2024/01/16 06:12:57;;;;;;;0.50;0.50;;;;;;;;;;4962917;28;20182;-87
2024/01/16 06:15:23;;;;;;;0.52;0.52;;;;;;;;;;4948179;28;20045;-87
2024/01/16 06:17:49;;;;;;;0.50;0.50;;;;;;;;;;4946155;28;20070;-86
2024/01/16 06:20:15;;;;;;;0.60;0.60;;;;;;;;;;4962706;28;20039;-86
2024/01/16 06:22:41;;;;;;;0.50;0.50;;;;;;;;;;4965493;28;20047;-87
2024/01/16 06:25:07;;;;;;;0.60;0.60;;;;;;;;;;4945418;28;20133;-86
2024/01/16 06:27:33;;;;;;;0.50;0.50;;;;;;;;;;4946385;28;20081;-87
2024/01/16 06:29:59;;;;;;;0.50;0.50;;;;;;;;;;4949960;28;20509;-87
2024/01/16 06:32:25;;;;;;;0.50;0.50;;;;;;;;;;4963275;28;20046;-87
2024/01/16 06:34:51;;;;;;;0.50;0.50;;;;;;;;;;4964154;28;20042;-87
2024/01/16 06:37:17;;;;;;;0.50;0.50;;;;;;;;;;4946474;28;20058;-87
2024/01/16 06:39:43;;;;;;;0.45;0.45;;;;;;;;;;4949346;28;20053;-87
2024/01/16 06:42:09;;;;;;;0.50;0.50;;;;;;;;;;4949201;28;20039;-87
2024/01/16 06:44:35;;;;;;;0.50;0.50;;;;;;;;;;4945910;28;20054;-87
2024/01/16 06:47:01;;;;;;;0.50;0.50;;;;;;;;;;4945584;29;20050;-87
2024/01/16 06:49:27;;;;;;;0.50;0.50;;;;;;;;;;4949387;28;20503;-87
2024/01/16 06:51:53;;;;;;;0.60;0.60;;;;;;;;;;4949682;28;20038;-87
2024/01/16 06:54:20;;;;;;;0.60;0.60;;;;;;;;;;4962437;28;20047;-87
2024/01/16 06:56:48;;;;;;;0.60;0.60;;;;;;;;;;4945270;28;20125;-86
2024/01/16 06:59:18;;;;;;;0.50;0.50;;;;;;;;;;4943297;28;20047;-87
2024/01/16 07:01:44;;;;;;;0.50;0.50;;;;;;;;;;4963418;28;20039;-88
2024/01/16 07:04:10;;;;;;;0.50;0.50;;;;;;;;;;4947409;28;20078;-88
2024/01/16 07:06:36;;;;;;;0.47;0.47;;;;;;;;;;4940308;29;20126;-88
2024/01/16 07:09:05;;;;;;;0.52;0.52;;;;;;;;;;4948082;28;20050;-87
2024/01/16 07:11:31;;;;;;;0.60;0.60;;;;;;;;;;4944809;28;20047;-87
2024/01/16 07:13:57;;;;;;;0.50;0.50;;;;;;;;;;4943722;29;20040;-87
2024/01/16 07:16:23;;;;;;;0.50;0.50;;;;;;;;;;4961657;28;20053;-87
2024/01/16 07:18:50;;;;;;;0.50;0.50;;;;;;;;;;4946230;28;20408;-87
2024/01/16 07:21:16;;;;;;;0.50;0.50;;;;;;;;;;4945318;28;20075;-87
2024/01/16 07:23:42;;;;;;;0.50;0.50;;;;;;;;;;4944497;28;20461;-87
2024/01/16 07:26:08;;;;;;;0.50;0.50;;;;;;;;;;4948324;28;20117;-88
2024/01/16 07:28:34;;;;;;;0.50;0.50;;;;;;;;;;4945324;28;20505;-87
2024/01/16 07:31:00;;;;;;;0.50;0.50;;;;;;;;;;4948885;28;20405;-87
2024/01/16 07:33:26;;;;;;;0.50;0.50;;;;;;;;;;4948973;28;20070;-90
2024/01/16 07:35:53;;;;;;;0.50;0.50;;;;;;;;;;4944888;28;20097;-87
2024/01/16 07:38:19;;;;;;;0.60;0.60;;;;;;;;;;4942823;28;20043;-87
2024/01/16 07:40:45;;;;;;;0.47;0.47;;;;;;;;;;4944143;28;20038;-88
2024/01/16 07:43:17;;;;;;;0.50;0.50;;;;;;;;;;4952382;28;20485;-88
2024/01/16 07:45:44;;;;;;;0.47;0.47;;;;;;;;;;4966496;28;20154;-88
2024/01/16 07:48:10;;;;;;;0.50;0.50;;;;;;;;;;4944786;28;20043;-87
2024/01/16 07:50:36;;;;;;;0.50;0.50;;;;;;;;;;4944432;28;20046;-83
2024/01/16 07:53:02;;;;;;;0.50;0.50;;;;;;;;;;4944087;28;20042;-84
2024/01/16 07:55:28;;;;;;;0.50;0.50;;;;;;;;;;4939589;28;20447;-85
2024/01/16 07:57:55;;;;;;;0.50;0.50;;;;;;;;;;4945143;28;20134;-85
2024/01/16 08:00:21;;;;;;;0.50;0.50;;;;;;;;;;4959994;28;20043;-85
2024/01/16 08:02:48;;;;;;;0.50;0.50;;;;;;;;;;4943850;28;20549;-85
2024/01/16 08:05:14;;;;;;;0.60;0.60;;;;;;;;;;4946057;28;20386;-84
2024/01/16 08:07:43;;;;;;;0.60;0.60;;;;;;;;;;4945161;28;20050;-86
2024/01/16 08:10:09;;;;;;;0.50;0.50;;;;;;;;;;4943470;28;20490;-85
2024/01/16 08:12:37;;;;;;;0.52;0.52;;;;;;;;;;4945410;28;20074;-85
2024/01/16 08:15:03;;;;;;;0.60;0.60;;;;;;;;;;4945786;28;20034;-84
2024/01/16 08:17:29;;;;;;;0.60;0.60;;;;;;;;;;4958729;28;20047;-85
2024/01/16 08:19:55;;;;;;;0.50;0.50;;;;;;;;;;4945302;28;20386;-85
2024/01/16 08:22:22;;;;;;;0.57;0.57;;;;;;;;;;4943327;28;20055;-86
2024/01/16 08:24:48;;;;;;;0.60;0.60;;;;;;;;;;4946878;28;20039;-86
2024/01/16 08:27:14;;;;;;;0.50;0.50;;;;;;;;;;4943769;28;20043;-85
2024/01/16 08:29:40;;;;;;;0.40;0.40;;;;;;;;;;4945010;28;20031;-84
2024/01/16 08:32:06;;;;;;;0.50;0.50;;;;;;;;;;4946369;28;20038;-85
2024/01/16 08:34:32;;;;;;;0.50;0.50;;;;;;;;;;4946087;29;20043;-85
2024/01/16 08:36:58;;;;;;;0.50;0.50;;;;;;;;;;4945347;28;20553;-85
2024/01/16 08:39:24;;;;;;;0.50;0.50;;;;;;;;;;4943343;28;20401;-84
2024/01/16 08:41:50;;;;;;;0.50;0.50;;;;;;;;;;4944720;28;20050;-84
2024/01/16 08:44:16;;;;;;;0.50;0.50;;;;;;;;;;4943470;28;20043;-83
2024/01/16 08:46:42;;;;;;;0.50;0.50;;;;;;;;;;4959425;28;20525;-84
2024/01/16 08:49:09;;;;;;;0.50;0.50;;;;;;;;;;4961250;28;20397;-85
2024/01/16 08:51:35;;;;;;;0.50;0.50;;;;;;;;;;4946475;28;20035;-86
2024/01/16 08:54:01;;;;;;;0.45;0.45;;;;;;;;;;4958054;28;20508;-86
2024/01/16 08:56:27;;;;;;;0.50;0.50;;;;;;;;;;4945306;28;20082;-86
2024/01/16 08:58:53;;;;;;;0.50;0.50;;;;;;;;;;4945748;28;20043;-86
2024/01/16 09:01:20;;;;;;;0.50;0.50;;;;;;;;;;4943987;28;20117;-87
2024/01/16 09:03:47;;;;;;;0.50;0.50;;;;;;;;;;4962526;28;20050;-85
2024/01/16 09:06:13;;;;;;;0.60;0.60;;;;;;;;;;4946961;28;20489;-87
2024/01/16 09:08:39;;;;;;;0.50;0.50;;;;;;;;;;4942879;28;20125;-84
2024/01/16 09:11:05;;;;;;;0.50;0.50;;;;;;;;;;4941283;28;20130;-86
2024/01/16 09:13:31;;;;;;;0.50;0.50;;;;;;;;;;4961105;28;20849;-83
2024/01/16 09:15:57;;;;;;;0.50;0.50;;;;;;;;;;4942368;28;20058;-84
2024/01/16 09:18:23;;;;;;;0.50;0.50;;;;;;;;;;4944955;28;20051;-84
2024/01/16 09:20:49;;;;;;;0.50;0.50;;;;;;;;;;4959533;28;20034;-83
2024/01/16 09:23:15;;;;;;;0.43;0.43;;;;;;;;;;4942783;28;20126;-84
2024/01/16 09:25:41;;;;;;;0.50;0.50;;;;;;;;;;4944794;28;20553;-84
2024/01/16 09:28:07;;;;;;;0.50;0.50;;;;;;;;;;4962376;28;20076;-84
2024/01/16 09:30:33;;;;;;;0.50;0.50;;;;;;;;;;4966135;28;20035;-84
2024/01/16 09:32:59;;;;;;;0.50;0.50;;;;;;;;;;4945413;29;20074;-85
2024/01/16 09:35:25;;;;;;;0.50;0.50;;;;;;;;;;4949078;28;20114;-86
2024/01/16 09:37:51;;;;;;;0.50;0.50;;;;;;;;;;4947851;28;20047;-85
2024/01/16 09:40:17;;;;;;;0.50;0.50;;;;;;;;;;4948325;28;20058;-85
2024/01/16 09:42:43;;;;;;;0.50;0.50;;;;;;;;;;4964355;28;20043;-85
2024/01/16 09:45:10;;;;;;;0.50;0.50;;;;;;;;;;4948563;28;20039;-84
2024/01/16 09:47:37;;;;;;;0.68;0.68;;;;;;;;;;4948575;28;20074;-85
2024/01/16 09:50:03;;;;;;;0.50;0.50;;;;;;;;;;4947902;28;20035;-86
2024/01/16 09:52:29;;;;;;;0.50;0.50;;;;;;;;;;4947679;29;20101;-84
2024/01/16 09:54:56;;;;;;;0.50;0.50;;;;;;;;;;4948302;28;20525;-87
2024/01/16 09:57:25;;;;;;;0.60;0.60;;;;;;;;;;4948704;28;20043;-87
2024/01/16 09:59:52;;;;;;;0.60;0.60;;;;;;;;;;4948617;28;20055;-85
2024/01/16 10:02:19;;;;;;;0.50;0.50;;;;;;;;;;4948157;28;20047;-84
2024/01/16 10:04:45;;;;;;;0.60;0.60;;;;;;;;;;4947087;28;20035;-85
2024/01/16 10:07:13;;;;;;;0.50;0.50;;;;;;;;;;4951735;28;20094;-84
2024/01/16 10:09:39;;;;;;;0.50;0.50;;;;;;;;;;4946573;28;20469;-85
2024/01/16 10:12:06;;;;;;;0.50;0.50;;;;;;;;;;4947604;28;20039;-86
2024/01/16 10:14:32;;;;;;;0.50;0.50;;;;;;;;;;4962029;28;20796;-86
2024/01/16 10:17:05;;;;;;;0.50;0.50;;;;;;;;;;4948306;29;20039;-84
2024/01/16 10:19:32;;;;;;;0.50;0.50;;;;;;;;;;4940694;28;20315;-84
2024/01/16 10:22:04;;;;;;;0.50;0.50;;;;;;;;;;4947312;29;20074;-86
2024/01/16 10:24:31;;;;;;;0.50;0.50;;;;;;;;;;4964507;28;20043;-83
2024/01/16 10:27:01;;;;;;;0.50;0.50;;;;;;;;;;4949314;28;20097;-86
2024/01/16 10:29:27;;;;;;;0.50;0.50;;;;;;;;;;4966862;28;20038;-86
2024/01/16 10:31:53;;;;;;;0.50;0.50;;;;;;;;;;4944808;28;20039;-86
2024/01/16 10:34:20;;;;;;;0.50;0.50;;;;;;;;;;4960121;28;20047;-84
2024/01/16 10:36:46;;;;;;;0.50;0.50;;;;;;;;;;4946602;28;20525;-87
2024/01/16 10:39:14;;;;;;;0.60;0.60;;;;;;;;;;4945198;28;20262;-86
2024/01/16 10:41:40;;;;;;;0.50;0.50;;;;;;;;;;4948583;28;20039;-86
2024/01/16 10:44:07;;;;;;;0.50;0.50;;;;;;;;;;4946942;28;20875;-84
2024/01/16 10:46:33;;;;;;;0.50;0.50;;;;;;;;;;4944428;28;20043;-84
2024/01/16 10:49:06;;;;;;;0.50;0.50;;;;;;;;;;4950614;28;20051;-84
2024/01/16 10:51:32;;;;;;;0.50;0.50;;;;;;;;;;4946901;28;20039;-84
2024/01/16 10:53:59;;;;;;;0.50;0.50;;;;;;;;;;4946231;28;20093;-84
2024/01/16 10:56:26;;;;;;;0.50;0.50;;;;;;;;;;4947357;28;20038;-84
2024/01/16 10:58:58;;;;;;;0.50;0.50;;;;;;;;;;4963876;28;20086;-86
2024/01/16 11:01:25;;;;;;;0.50;0.50;;;;;;;;;;4963492;28;20039;-84
2024/01/16 11:03:52;;;;;;;0.60;0.60;;;;;;;;;;4942107;28;20083;-83
2024/01/16 11:06:19;;;;;;;0.50;0.50;;;;;;;;;;4948103;28;20047;-85
2024/01/16 11:08:48;;;;;;;0.50;0.50;;;;;;;;;;4945447;28;20089;-85
2024/01/16 11:11:15;;;;;;;0.50;0.50;;;;;;;;;;4946342;28;20098;-85
2024/01/16 11:13:44;;;;;;;0.40;0.40;;;;;;;;;;4944590;28;20035;-85
2024/01/16 11:16:11;;;;;;;0.60;0.60;;;;;;;;;;4961067;28;20043;-85
2024/01/16 11:18:37;;;;;;;0.50;0.50;;;;;;;;;;4945818;28;20034;-84
2024/01/16 11:21:10;;;;;;;0.50;0.50;;;;;;;;;;4963274;28;20061;-85
2024/01/16 11:23:37;;;;;;;0.50;0.50;;;;;;;;;;4942926;28;20039;-85
2024/01/16 11:26:22;;;;;;;0.55;0.55;;;;;;;;;;4944508;28;20137;-85
2024/01/16 11:28:48;;;;;;;0.50;0.50;;;;;;;;;;4943676;28;20106;-85
2024/01/16 11:31:34;;;;;;;0.65;0.65;;;;;;;;;;4969299;28;20294;-85
2024/01/16 11:34:01;;;;;;;0.55;0.55;;;;;;;;;;4951407;28;20047;-84
2024/01/16 11:36:46;;;;;;;0.40;0.40;;;;;;;;;;4946287;28;20046;-84
2024/01/16 11:39:17;;;;;;;0.50;0.50;;;;;;;;;;4945536;28;20065;-85
2024/01/16 11:41:53;;;;;;;0.57;0.57;;;;;;;;;;4947296;28;20485;-85
2024/01/16 11:44:18;;;;;;;;;;;;;;;;;;4948586;28;20050;-84
2024/01/16 11:47:00;;;;;;;0.50;0.50;;;;;;;;;;4951587;28;20025;-82
2024/01/16 11:49:26;;;;;;;0.50;0.50;;;;;;;;;;4950064;28;20042;-81
2024/01/16 11:51:52;;;;;;;0.50;0.50;;;;;;;;;;4951924;28;20053;-82
2024/01/16 11:54:18;;;;;;;0.50;0.50;;;;;;;;;;4969457;28;20074;-81
2024/01/16 11:56:53;;;;;;;0.50;0.50;;;;;;;;;;4968428;28;20486;-81
2024/01/16 11:59:19;;;;;;;0.50;0.50;;;;;;;;;;4950300;28;20133;-81
2024/01/16 12:01:46;;;;;;;0.55;0.55;;;;;;;;;;4967921;28;20118;-83
2024/01/16 12:04:12;;;;;;;0.50;0.50;;;;;;;;;;4968485;28;20050;-82
2024/01/16 12:06:38;;;;;;;0.50;0.50;;;;;;;;;;4951678;28;20046;-83
2024/01/16 12:09:20;;;;;;;0.50;0.50;;;;;;;;;;4955796;28;20034;-83
2024/01/16 12:11:57;;;;;;;0.60;0.60;;;;;;;;;;4943725;28;20081;-82
2024/01/16 12:14:23;;;;;;;0.40;0.40;;;;;;;;;;4964609;28;20053;-83
2024/01/16 12:16:49;;;;;;;0.43;0.43;;;;;;;;;;4966383;28;20047;-84
2024/01/16 12:19:15;;;;;;;0.43;0.43;;;;;;;;;;4951833;28;20042;-84
2024/01/16 12:21:42;;;;;;;0.50;0.50;;;;;;;;;;4950414;28;20093;-84
2024/01/16 12:24:08;;;;;;;0.50;0.50;;;;;;;;;;4951836;28;20042;-82
2024/01/16 12:26:34;;;;;;;0.50;0.50;;;;;;;;;;4949808;28;20047;-84
2024/01/16 12:29:00;;;;;;;0.50;0.50;;;;;;;;;;4969326;28;20050;-82
2024/01/16 12:31:28;;;;;;;0.50;0.50;;;;;;;;;;4949756;28;20540;-82
2024/01/16 12:33:55;;;;;;;0.50;0.50;;;;;;;;;;4948974;28;20568;-82
2024/01/16 12:36:21;;;;;;;0.50;0.50;;;;;;;;;;4950217;28;20043;-82
2024/01/16 12:38:55;;;;;;;0.50;0.50;;;;;;;;;;4964686;28;20516;-81
2024/01/16 12:41:21;;;;;;;0.50;0.50;;;;;;;;;;4963244;28;20568;-84
2024/01/16 12:43:49;;;;;;;0.50;0.50;;;;;;;;;;4946841;28;20098;-82
2024/01/16 12:46:15;;;;;;;0.55;0.55;;;;;;;;;;4950735;28;20178;-82
2024/01/16 12:48:41;;;;;;;0.40;0.40;;;;;;;;;;4949605;28;20542;-81
2024/01/16 12:51:09;;;;;;;0.50;0.50;;;;;;;;;;4951381;28;20065;-82
2024/01/16 12:53:39;;;;;;;0.60;0.60;;;;;;;;;;4946457;28;20038;-83
2024/01/16 12:56:06;;;;;;;0.60;0.60;;;;;;;;;;4949891;28;20050;-86
2024/01/16 12:58:34;;;;;;;0.50;0.50;;;;;;;;;;4949931;28;20525;-85
2024/01/16 13:01:20;;;;;;;0.52;0.52;;;;;;;;;;4957870;28;20412;-85
2024/01/16 13:03:46;;;;;;;0.50;0.50;;;;;;;;;;4958686;28;20042;-85
2024/01/16 13:06:17;;;;;;;0.50;0.50;;;;;;;;;;4960741;28;20092;-86
2024/01/16 13:08:43;;;;;;;0.50;0.50;;;;;;;;;;4961184;28;20089;-84
2024/01/16 13:11:09;;;;;;;0.50;0.50;;;;;;;;;;4960970;28;20046;-85
2024/01/16 13:13:36;;;;;;;0.50;0.50;;;;;;;;;;4960226;28;20049;-85
2024/01/16 13:16:05;;;;;;;0.50;0.50;;;;;;;;;;4975909;28;20043;-84
2024/01/16 13:18:31;;;;;;;0.50;0.50;;;;;;;;;;4957599;28;20053;-86
2024/01/16 13:20:59;;;;;;;0.50;0.50;;;;;;;;;;4955748;28;20137;-85
2024/01/16 13:23:25;;;;;;;0.50;0.50;;;;;;;;;;4955142;28;20146;-83
2024/01/16 13:25:52;;;;;;;0.50;0.50;;;;;;;;;;4944705;28;20050;-84
2024/01/16 13:28:19;;;;;;;0.50;0.50;;;;;;;;;;4962236;28;20038;-84
2024/01/16 13:30:45;;;;;;;0.50;0.50;;;;;;;;;;4954900;28;20054;-84
2024/01/16 13:33:12;;;;;;;0.50;0.50;;;;;;;;;;4960071;28;20409;-84
2024/01/16 13:35:41;;;;;;;0.50;0.50;;;;;;;;;;4961152;28;20038;-84
2024/01/16 13:38:08;;;;;;;0.60;0.60;;;;;;;;;;4959920;28;20105;-87
2024/01/16 13:40:37;;;;;;;0.50;0.50;;;;;;;;;;4944676;28;20047;-85
2024/01/16 13:43:06;;;;;;;0.50;0.50;;;;;;;;;;4950230;28;20420;-85
2024/01/16 13:45:33;;;;;;;0.50;0.50;;;;;;;;;;4947903;28;20113;-87
2024/01/16 13:48:01;;;;;;;0.50;0.50;;;;;;;;;;4947891;28;20070;-84
2024/01/16 13:50:27;;;;;;;0.50;0.50;;;;;;;;;;4943983;28;20382;-85
2024/01/16 13:52:56;;;;;;;0.50;0.50;;;;;;;;;;4945688;28;20815;-83
2024/01/16 13:55:23;;;;;;;0.50;0.50;;;;;;;;;;4947992;28;20042;-83
2024/01/16 13:57:49;;;;;;;0.50;0.50;;;;;;;;;;4959599;28;20412;-85
2024/01/16 14:00:15;;;;;;;0.50;0.50;;;;;;;;;;4958140;28;20047;-86
2024/01/16 14:02:42;;;;;;;0.50;0.50;;;;;;;;;;4960162;28;20049;-85
2024/01/16 14:05:15;;;;;;;0.50;0.50;;;;;;;;;;4954596;28;20043;-86
2024/01/16 14:07:41;;;;;;;0.50;0.50;;;;;;;;;;4950365;28;20057;-86
2024/01/16 14:10:11;;;;;;;0.40;0.40;;;;;;;;;;4948311;28;20125;-87
2024/01/16 14:12:37;;;;;;;0.45;0.45;;;;;;;;;;4950353;28;20043;-85
2024/01/16 14:15:07;;;;;;;0.50;0.50;;;;;;;;;;4949526;28;20042;-85
2024/01/16 14:17:33;;;;;;;0.50;0.50;;;;;;;;;;4947586;28;20042;-84
2024/01/16 14:19:59;;;;;;;0.50;0.50;;;;;;;;;;4967090;28;20153;-85
2024/01/16 14:22:27;;;;;;;0.70;0.70;;;;;;;;;;4970711;28;20480;-85
2024/01/16 14:24:53;;;;;;;0.50;0.50;;;;;;;;;;4947405;28;20456;-86
2024/01/16 14:27:19;;;;;;;0.50;0.50;;;;;;;;;;4952504;28;20105;-88
2024/01/16 14:29:45;;;;;;;0.50;0.50;;;;;;;;;;4967068;28;20048;-84
2024/01/16 14:32:11;;;;;;;0.50;0.50;;;;;;;;;;4944451;28;20096;-86
2024/01/16 14:34:37;;;;;;;0.52;0.52;;;;;;;;;;4965679;28;20501;-87
2024/01/16 14:37:03;;;;;;;0.50;0.50;;;;;;;;;;4946416;28;20498;-84
2024/01/16 14:39:30;;;;;;;0.40;0.40;;;;;;;;;;4946961;28;20661;-84
2024/01/16 14:42:02;;;;;;;0.50;0.50;;;;;;;;;;4943563;28;20050;-84